createdAt,value
2019-03-01T00:00:36.000Z,28.3
2019-03-01T00:01:36.000Z,28.3
2019-03-01T00:03:36.000Z,28.3
2019-03-01T00:04:36.000Z,28.3
2019-03-01T00:06:36.000Z,28.4
2019-03-01T00:07:36.000Z,28.4
2019-03-01T00:09:36.000Z,28.4
2019-03-01T00:11:36.000Z,28.3
2019-03-01T00:12:36.000Z,28.3
2019-03-01T00:13:36.000Z,28.3
2019-03-01T00:15:36.000Z,28.3
2019-03-01T00:17:36.000Z,28.3
2019-03-01T00:19:36.000Z,28.3
2019-03-01T00:20:36.000Z,28.3
2019-03-01T00:21:36.000Z,28.3
2019-03-01T00:23:36.000Z,28.3
2019-03-01T00:24:36.000Z,28.3
2019-03-01T00:25:36.000Z,28.4
2019-03-01T00:27:36.000Z,28.4
2019-03-01T00:29:36.000Z,28.4
2019-03-01T00:30:36.000Z,28.4
2019-03-01T00:32:36.000Z,28.4
2019-03-01T00:34:36.000Z,28.3
2019-03-01T00:36:36.000Z,28.3
2019-03-01T00:37:36.000Z,28.3
2019-03-01T00:39:36.000Z,28.3
2019-03-01T00:40:36.000Z,28.3
2019-03-01T00:41:36.000Z,28.4
2019-03-01T00:43:36.000Z,28.4
2019-03-01T00:44:36.000Z,28.4
2019-03-01T00:45:36.000Z,28.5
2019-03-01T00:47:36.000Z,28.5
2019-03-01T00:49:36.000Z,28.5
2019-03-01T00:50:36.000Z,28.5
2019-03-01T00:51:36.000Z,28.5
2019-03-01T00:52:36.000Z,28.5
2019-03-01T00:53:36.000Z,28.5
2019-03-01T00:55:36.000Z,28.5
2019-03-01T00:57:37.000Z,28.5
2019-03-01T00:59:37.000Z,28.4
2019-03-01T01:01:37.000Z,28.3
2019-03-01T01:03:37.000Z,28.2
2019-03-01T01:05:37.000Z,28.1
2019-03-01T01:07:37.000Z,28.1
2019-03-01T01:08:37.000Z,28
2019-03-01T01:10:37.000Z,28
2019-03-01T01:12:37.000Z,28.1
2019-03-01T01:14:21.000Z,28.1
2019-03-01T01:15:37.000Z,28.1
2019-03-01T01:16:37.000Z,28.1
2019-03-01T01:18:37.000Z,28.1
2019-03-01T01:20:37.000Z,28.2
2019-03-01T01:21:37.000Z,28.2
2019-03-01T01:23:37.000Z,28.2
2019-03-01T01:25:37.000Z,28.1
2019-03-01T01:26:37.000Z,28.1
2019-03-01T01:28:37.000Z,28.1
2019-03-01T01:30:37.000Z,28.1
2019-03-01T01:31:37.000Z,28.1
2019-03-01T01:32:37.000Z,28.1
2019-03-01T01:34:37.000Z,28.2
2019-03-01T01:36:37.000Z,28.1
2019-03-01T01:38:21.000Z,28.1
2019-03-01T01:39:22.000Z,28.1
2019-03-01T01:40:37.000Z,28
2019-03-01T01:41:37.000Z,28
2019-03-01T01:43:22.000Z,28
2019-03-01T01:44:37.000Z,28
2019-03-01T01:45:37.000Z,28
2019-03-01T01:47:37.000Z,28.1
2019-03-01T01:49:37.000Z,28.1
2019-03-01T01:50:37.000Z,28.1
2019-03-01T01:52:37.000Z,28.2
2019-03-01T01:54:37.000Z,28.2
2019-03-01T01:55:37.000Z,28.2
2019-03-01T01:56:37.000Z,28.2
2019-03-01T01:58:37.000Z,28.1
2019-03-01T01:59:37.000Z,28.1
2019-03-01T02:00:37.000Z,28.2
2019-03-01T02:01:36.000Z,28.2
2019-03-01T02:03:36.000Z,28.3
2019-03-01T02:05:36.000Z,28.3
2019-03-01T02:06:36.000Z,28.3
2019-03-01T02:07:36.000Z,28.3
2019-03-01T02:09:36.000Z,28.3
2019-03-01T02:10:36.000Z,28.3
2019-03-01T02:12:21.000Z,28.3
2019-03-01T02:13:36.000Z,28.2
2019-03-01T02:15:36.000Z,28.1
2019-03-01T02:16:36.000Z,28.1
2019-03-01T02:18:36.000Z,28.1
2019-03-01T02:20:36.000Z,28
2019-03-01T02:21:36.000Z,28
2019-03-01T02:22:36.000Z,28.1
2019-03-01T02:23:36.000Z,28.2
2019-03-01T02:25:21.000Z,28.3
2019-03-01T02:26:36.000Z,28.2
2019-03-01T02:27:36.000Z,28.2
2019-03-01T02:28:36.000Z,28.3
2019-03-01T02:30:36.000Z,28.3
2019-03-01T02:32:36.000Z,28.1
2019-03-01T02:34:21.000Z,28
2019-03-01T02:35:36.000Z,27.9
2019-03-01T02:37:36.000Z,27.9
2019-03-01T02:39:21.000Z,27.9
2019-03-01T02:40:36.000Z,27.9
2019-03-01T02:42:36.000Z,27.9
2019-03-01T02:44:36.000Z,27.9
2019-03-01T02:45:36.000Z,27.9
2019-03-01T02:47:36.000Z,28
2019-03-01T02:48:36.000Z,28
2019-03-01T02:50:21.000Z,28.1
2019-03-01T02:51:36.000Z,28.1
2019-03-01T02:53:36.000Z,28
2019-03-01T02:54:36.000Z,28
2019-03-01T02:56:36.000Z,28
2019-03-01T02:57:36.000Z,28
2019-03-01T02:59:36.000Z,28.1
2019-03-01T03:00:36.000Z,28.1
2019-03-01T03:02:36.000Z,28.1
2019-03-01T03:03:36.000Z,28.2
2019-03-01T03:05:36.000Z,28.2
2019-03-01T03:06:36.000Z,28.2
2019-03-01T03:08:36.000Z,28.2
2019-03-01T03:10:36.000Z,28.2
2019-03-01T03:12:36.000Z,28.1
2019-03-01T03:14:36.000Z,28.1
2019-03-01T03:15:36.000Z,28.1
2019-03-01T03:17:21.000Z,28.1
2019-03-01T03:19:36.000Z,28
2019-03-01T03:20:36.000Z,28
2019-03-01T03:21:36.000Z,28
2019-03-01T03:23:36.000Z,28
2019-03-01T03:24:36.000Z,28
2019-03-01T03:26:21.000Z,28
2019-03-01T03:27:36.000Z,28
2019-03-01T03:28:36.000Z,28
2019-03-01T03:30:36.000Z,28
2019-03-01T03:32:36.000Z,28
2019-03-01T03:34:36.000Z,28
2019-03-01T03:35:36.000Z,28
2019-03-01T03:36:36.000Z,28.1
2019-03-01T03:38:36.000Z,28
2019-03-01T03:40:36.000Z,28
2019-03-01T03:41:36.000Z,28
2019-03-01T03:42:36.000Z,28
2019-03-01T03:44:36.000Z,27.9
2019-03-01T03:45:36.000Z,27.9
2019-03-01T03:46:36.000Z,27.9
2019-03-01T03:48:36.000Z,27.9
2019-03-01T03:49:36.000Z,27.9
2019-03-01T03:50:36.000Z,27.9
2019-03-01T03:52:36.000Z,27.9
2019-03-01T03:53:36.000Z,27.9
2019-03-01T03:54:36.000Z,27.9
2019-03-01T03:56:36.000Z,28
2019-03-01T03:58:36.000Z,27.9
2019-03-01T04:00:36.000Z,27.8
2019-03-01T04:01:36.000Z,27.8
2019-03-01T04:03:36.000Z,27.8
2019-03-01T04:04:36.000Z,27.9
2019-03-01T04:05:36.000Z,28
2019-03-01T04:07:36.000Z,28
2019-03-01T04:09:36.000Z,28
2019-03-01T04:10:36.000Z,28
2019-03-01T04:12:21.000Z,28
2019-03-01T04:13:36.000Z,27.9
2019-03-01T04:15:36.000Z,27.9
2019-03-01T04:17:36.000Z,27.8
2019-03-01T04:18:36.000Z,27.8
2019-03-01T04:20:36.000Z,27.8
2019-03-01T04:22:36.000Z,27.9
2019-03-01T04:24:36.000Z,27.9
2019-03-01T04:25:36.000Z,27.9
2019-03-01T04:26:36.000Z,28
2019-03-01T04:28:21.000Z,28.1
2019-03-01T04:29:36.000Z,28
2019-03-01T04:31:36.000Z,28
2019-03-01T04:33:36.000Z,28
2019-03-01T04:35:36.000Z,28
2019-03-01T04:36:36.000Z,28
2019-03-01T04:38:36.000Z,28
2019-03-01T04:39:36.000Z,28.1
2019-03-01T04:40:36.000Z,28.1
2019-03-01T04:42:21.000Z,28.1
2019-03-01T04:43:36.000Z,28.1
2019-03-01T04:45:36.000Z,28
2019-03-01T04:47:36.000Z,28
2019-03-01T04:49:36.000Z,27.9
2019-03-01T04:51:36.000Z,27.8
2019-03-01T04:53:36.000Z,27.7
2019-03-01T04:55:36.000Z,27.6
2019-03-01T04:57:36.000Z,27.5
2019-03-01T04:59:21.000Z,27.6
2019-03-01T05:00:36.000Z,27.6
2019-03-01T05:01:36.000Z,27.6
2019-03-01T05:03:21.000Z,27.7
2019-03-01T05:04:36.000Z,27.8
2019-03-01T05:06:36.000Z,27.8
2019-03-01T05:08:36.000Z,27.7
2019-03-01T05:09:36.000Z,27.7
2019-03-01T05:10:36.000Z,27.8
2019-03-01T05:11:36.000Z,27.8
2019-03-01T05:13:36.000Z,27.9
2019-03-01T05:14:36.000Z,28
2019-03-01T05:15:36.000Z,28
2019-03-01T05:16:36.000Z,28.1
2019-03-01T05:18:36.000Z,28.1
2019-03-01T05:20:36.000Z,28.1
2019-03-01T05:21:36.000Z,28
2019-03-01T05:23:36.000Z,28
2019-03-01T05:25:36.000Z,28
2019-03-01T05:27:36.000Z,27.9
2019-03-01T05:28:36.000Z,27.9
2019-03-01T05:29:36.000Z,27.9
2019-03-01T05:31:36.000Z,27.9
2019-03-01T05:33:36.000Z,27.8
2019-03-01T05:35:36.000Z,27.7
2019-03-01T05:36:36.000Z,27.8
2019-03-01T05:37:36.000Z,27.8
2019-03-01T05:39:21.000Z,27.8
2019-03-01T05:40:36.000Z,27.8
2019-03-01T05:42:36.000Z,27.8
2019-03-01T05:44:36.000Z,27.8
2019-03-01T05:46:36.000Z,27.8
2019-03-01T05:48:36.000Z,27.7
2019-03-01T05:50:36.000Z,27.7
2019-03-01T05:52:36.000Z,27.8
2019-03-01T05:54:36.000Z,27.8
2019-03-01T05:55:36.000Z,27.8
2019-03-01T05:57:36.000Z,27.9
2019-03-01T05:59:36.000Z,27.9
2019-03-01T06:01:36.000Z,27.9
2019-03-01T06:02:36.000Z,27.9
2019-03-01T06:03:36.000Z,27.9
2019-03-01T06:04:36.000Z,27.9
2019-03-01T06:06:36.000Z,28
2019-03-01T06:08:36.000Z,28
2019-03-01T06:10:36.000Z,27.9
2019-03-01T06:11:36.000Z,27.9
2019-03-01T06:13:36.000Z,27.8
2019-03-01T06:14:36.000Z,27.8
2019-03-01T06:16:36.000Z,27.9
2019-03-01T06:17:36.000Z,27.9
2019-03-01T06:18:36.000Z,28
2019-03-01T06:19:36.000Z,28
2019-03-01T06:21:36.000Z,28
2019-03-01T06:23:36.000Z,27.8
2019-03-01T06:24:36.000Z,27.8
2019-03-01T06:25:36.000Z,27.8
2019-03-01T06:27:36.000Z,27.8
2019-03-01T06:28:36.000Z,27.9
2019-03-01T06:29:36.000Z,27.9
2019-03-01T06:30:36.000Z,27.9
2019-03-01T06:32:36.000Z,27.9
2019-03-01T06:33:36.000Z,27.9
2019-03-01T06:34:36.000Z,27.9
2019-03-01T06:36:21.000Z,27.9
2019-03-01T06:37:36.000Z,27.8
2019-03-01T06:39:36.000Z,27.7
2019-03-01T06:41:36.000Z,27.7
2019-03-01T06:42:36.000Z,27.7
2019-03-01T06:44:36.000Z,27.8
2019-03-01T06:46:36.000Z,27.8
2019-03-01T06:47:36.000Z,27.8
2019-03-01T06:48:36.000Z,27.8
2019-03-01T06:50:36.000Z,27.9
2019-03-01T06:52:36.000Z,27.8
2019-03-01T06:53:36.000Z,27.8
2019-03-01T06:55:36.000Z,27.8
2019-03-01T06:56:36.000Z,27.9
2019-03-01T06:58:36.000Z,27.8
2019-03-01T06:59:36.000Z,27.8
2019-03-01T07:01:36.000Z,27.9
2019-03-01T07:02:36.000Z,27.9
2019-03-01T07:03:36.000Z,27.9
2019-03-01T07:05:21.000Z,28
2019-03-01T07:06:36.000Z,28
2019-03-01T07:07:36.000Z,28
2019-03-01T07:09:36.000Z,28
2019-03-01T07:10:36.000Z,28
2019-03-01T07:11:36.000Z,28
2019-03-01T07:13:36.000Z,28
2019-03-01T07:14:36.000Z,28
2019-03-01T07:16:21.000Z,27.9
2019-03-01T07:17:36.000Z,27.9
2019-03-01T07:18:36.000Z,27.9
2019-03-01T07:20:36.000Z,27.9
2019-03-01T07:22:36.000Z,27.9
2019-03-01T07:23:36.000Z,27.9
2019-03-01T07:25:36.000Z,27.9
2019-03-01T07:26:36.000Z,27.9
2019-03-01T07:27:36.000Z,27.9
2019-03-01T07:29:36.000Z,27.9
2019-03-01T07:30:36.000Z,27.9
2019-03-01T07:31:36.000Z,28
2019-03-01T07:33:36.000Z,28
2019-03-01T07:34:36.000Z,28
2019-03-01T07:35:36.000Z,28
2019-03-01T07:37:36.000Z,28
2019-03-01T07:39:36.000Z,28
2019-03-01T07:41:36.000Z,27.9
2019-03-01T07:42:36.000Z,27.9
2019-03-01T07:44:36.000Z,27.9
2019-03-01T07:46:21.000Z,27.9
2019-03-01T07:48:36.000Z,27.7
2019-03-01T07:49:36.000Z,27.6
2019-03-01T07:51:36.000Z,27.7
2019-03-01T07:53:36.000Z,27.6
2019-03-01T07:55:21.000Z,27.5
2019-03-01T07:56:36.000Z,27.3
2019-03-01T07:58:25.000Z,27.2
2019-03-01T08:00:36.000Z,27
2019-03-01T08:02:36.000Z,27
2019-03-01T08:03:36.000Z,27
2019-03-01T08:05:36.000Z,27
2019-03-01T08:06:36.000Z,27
2019-03-01T08:08:36.000Z,27
2019-03-01T08:09:36.000Z,27
2019-03-01T08:11:36.000Z,27
2019-03-01T08:12:36.000Z,27
2019-03-01T08:14:21.000Z,27.2
2019-03-01T08:15:36.000Z,27.1
2019-03-01T08:16:36.000Z,27.1
2019-03-01T08:18:21.000Z,27.1
2019-03-01T08:19:22.000Z,27.1
2019-03-01T08:20:36.000Z,27.1
2019-03-01T08:22:21.000Z,27.2
2019-03-01T08:23:36.000Z,27.2
2019-03-01T08:24:36.000Z,27.2
2019-03-01T08:26:36.000Z,27.3
2019-03-01T08:27:36.000Z,27.3
2019-03-01T08:29:36.000Z,27.4
2019-03-01T08:31:36.000Z,27.4
2019-03-01T08:33:36.000Z,27.4
2019-03-01T08:35:21.000Z,27.3
2019-03-01T08:36:36.000Z,27.1
2019-03-01T08:37:36.000Z,27.1
2019-03-01T08:39:36.000Z,27
2019-03-01T08:40:36.000Z,26.9
2019-03-01T08:42:36.000Z,26.9
2019-03-01T08:43:36.000Z,26.9
2019-03-01T08:45:36.000Z,27.1
2019-03-01T08:46:36.000Z,27.1
2019-03-01T08:48:36.000Z,27.3
2019-03-01T08:49:36.000Z,27.3
2019-03-01T08:51:21.000Z,27.5
2019-03-01T08:53:36.000Z,27.3
2019-03-01T08:55:36.000Z,27.2
2019-03-01T08:57:21.000Z,27.2
2019-03-01T08:58:36.000Z,27
2019-03-01T08:59:36.000Z,27
2019-03-01T09:01:36.000Z,27
2019-03-01T09:02:36.000Z,27.1
2019-03-01T09:04:36.000Z,27.2
2019-03-01T09:06:36.000Z,27.2
2019-03-01T09:07:36.000Z,27.2
2019-03-01T09:09:36.000Z,27.3
2019-03-01T09:11:21.000Z,27.4
2019-03-01T09:12:36.000Z,27.4
2019-03-01T09:14:21.000Z,27.5
2019-03-01T09:15:36.000Z,27.5
2019-03-01T09:16:36.000Z,27.5
2019-03-01T09:18:36.000Z,27.6
2019-03-01T09:20:36.000Z,27.6
2019-03-01T09:22:21.000Z,27.5
2019-03-01T09:23:26.000Z,27.5
2019-03-01T09:25:36.000Z,27.3
2019-03-01T09:26:36.000Z,27.4
2019-03-01T09:28:21.000Z,27.4
2019-03-01T09:29:36.000Z,27.3
2019-03-01T09:31:36.000Z,27.2
2019-03-01T09:33:21.000Z,27.2
2019-03-01T09:34:36.000Z,27.1
2019-03-01T09:35:36.000Z,27.1
2019-03-01T09:37:21.000Z,27.2
2019-03-01T09:38:36.000Z,27.3
2019-03-01T09:40:21.000Z,27.3
2019-03-01T09:42:36.000Z,27.1
2019-03-01T09:44:36.000Z,27.1
2019-03-01T09:45:36.000Z,27.1
2019-03-01T09:47:36.000Z,27.2
2019-03-01T09:49:21.000Z,27.1
2019-03-01T09:50:36.000Z,27.1
2019-03-01T09:52:21.000Z,27
2019-03-01T09:53:36.000Z,27
2019-03-01T09:54:36.000Z,27
2019-03-01T09:56:21.000Z,27.2
2019-03-01T09:57:36.000Z,27.2
2019-03-01T09:59:36.000Z,27.3
2019-03-01T10:01:36.000Z,27.3
2019-03-01T10:02:36.000Z,27.4
2019-03-01T10:03:36.000Z,27.5
2019-03-01T10:04:36.000Z,27.7
2019-03-01T10:06:21.000Z,27.8
2019-03-01T10:07:36.000Z,27.8
2019-03-01T10:09:36.000Z,27.8
2019-03-01T10:11:21.000Z,27.8
2019-03-01T10:12:36.000Z,27.8
2019-03-01T10:14:36.000Z,27.8
2019-03-01T10:15:36.000Z,27.8
2019-03-01T10:17:36.000Z,27.9
2019-03-01T10:19:36.000Z,28
2019-03-01T10:21:36.000Z,27.9
2019-03-01T10:23:36.000Z,27.9
2019-03-01T10:25:36.000Z,27.9
2019-03-01T10:27:36.000Z,28
2019-03-01T10:28:36.000Z,28
2019-03-01T10:29:36.000Z,28.1
2019-03-01T10:31:36.000Z,28.2
2019-03-01T10:33:36.000Z,28.2
2019-03-01T10:35:36.000Z,28
2019-03-01T10:36:36.000Z,28
2019-03-01T10:38:36.000Z,28.1
2019-03-01T10:39:36.000Z,28.1
2019-03-01T10:41:21.000Z,28.2
2019-03-01T10:42:36.000Z,28.1
2019-03-01T10:44:36.000Z,28.1
2019-03-01T10:45:36.000Z,28.1
2019-03-01T10:47:36.000Z,28.2
2019-03-01T10:48:36.000Z,28.2
2019-03-01T10:49:36.000Z,28.3
2019-03-01T10:51:36.000Z,28.3
2019-03-01T10:52:36.000Z,28.3
2019-03-01T10:53:36.000Z,28.4
2019-03-01T10:54:37.000Z,28.4
2019-03-01T10:56:36.000Z,28.4
2019-03-01T10:58:36.000Z,28.3
2019-03-01T10:59:36.000Z,28.3
2019-03-01T11:00:36.000Z,28.3
2019-03-01T11:02:36.000Z,28.4
2019-03-01T11:03:36.000Z,28.4
2019-03-01T11:04:36.000Z,28.4
2019-03-01T11:05:36.000Z,28.5
2019-03-01T11:07:36.000Z,28.4
2019-03-01T11:09:36.000Z,28.3
2019-03-01T11:10:36.000Z,28.3
2019-03-01T11:11:36.000Z,28.3
2019-03-01T11:12:36.000Z,28.3
2019-03-01T11:14:36.000Z,28.3
2019-03-01T11:16:36.000Z,28.3
2019-03-01T11:18:36.000Z,28.3
2019-03-01T11:20:36.000Z,28.3
2019-03-01T11:22:21.000Z,28.3
2019-03-01T11:23:36.000Z,28.2
2019-03-01T11:25:36.000Z,28.2
2019-03-01T11:27:36.000Z,28.2
2019-03-01T11:29:36.000Z,28.2
2019-03-01T11:31:36.000Z,28.2
2019-03-01T11:32:36.000Z,28.3
2019-03-01T11:34:36.000Z,28.3
2019-03-01T11:35:36.000Z,28.3
2019-03-01T11:37:36.000Z,28.3
2019-03-01T11:39:21.000Z,28.3
2019-03-01T11:40:36.000Z,28.2
2019-03-01T11:42:36.000Z,28.1
2019-03-01T11:44:36.000Z,28.1
2019-03-01T11:46:36.000Z,28.1
2019-03-01T11:48:36.000Z,28
2019-03-01T11:50:36.000Z,28
2019-03-01T11:52:36.000Z,27.9
2019-03-01T11:53:36.000Z,27.9
2019-03-01T11:55:36.000Z,28
2019-03-01T11:57:36.000Z,28
2019-03-01T11:58:36.000Z,28
2019-03-01T11:59:36.000Z,28.1
2019-03-01T12:01:36.000Z,28.2
2019-03-01T12:02:36.000Z,28.2
2019-03-01T12:04:36.000Z,28.3
2019-03-01T12:05:36.000Z,28.3
2019-03-01T12:06:36.000Z,28.3
2019-03-01T12:08:36.000Z,28.4
2019-03-01T12:10:36.000Z,28.3
2019-03-01T12:11:36.000Z,28.2
2019-03-01T12:12:36.000Z,28.2
2019-03-01T12:14:21.000Z,28.2
2019-03-01T12:15:36.000Z,28.2
2019-03-01T12:16:36.000Z,28.2
2019-03-01T12:17:36.000Z,28.2
2019-03-01T12:19:36.000Z,28.3
2019-03-01T12:21:36.000Z,28.2
2019-03-01T12:23:21.000Z,28.1
2019-03-01T12:24:36.000Z,28.1
2019-03-01T12:26:36.000Z,28
2019-03-01T12:28:36.000Z,27.9
2019-03-01T12:30:36.000Z,27.8
2019-03-01T12:32:36.000Z,27.8
2019-03-01T12:33:36.000Z,27.8
2019-03-01T12:34:36.000Z,27.8
2019-03-01T12:35:36.000Z,27.9
2019-03-01T12:36:36.000Z,28
2019-03-01T12:38:36.000Z,28
2019-03-01T12:39:36.000Z,28
2019-03-01T12:40:36.000Z,28.1
2019-03-01T12:41:36.000Z,28.1
2019-03-01T12:43:36.000Z,28.1
2019-03-01T12:44:36.000Z,28.1
2019-03-01T12:46:36.000Z,28.1
2019-03-01T12:48:36.000Z,28
2019-03-01T12:49:36.000Z,28
2019-03-01T12:51:36.000Z,28
2019-03-01T12:52:36.000Z,28
2019-03-01T12:54:36.000Z,28
2019-03-01T12:56:36.000Z,27.9
2019-03-01T12:57:36.000Z,27.9
2019-03-01T12:59:36.000Z,27.8
2019-03-01T13:00:36.000Z,27.8
2019-03-01T13:02:36.000Z,27.9
2019-03-01T13:04:36.000Z,27.9
2019-03-01T13:06:36.000Z,27.7
2019-03-01T13:07:36.000Z,27.6
2019-03-01T13:09:21.000Z,27.5
2019-03-01T13:10:36.000Z,27.4
2019-03-01T13:12:21.000Z,27.2
2019-03-01T13:13:36.000Z,27.1
2019-03-01T13:15:36.000Z,27
2019-03-01T13:17:36.000Z,26.9
2019-03-01T13:18:36.000Z,26.9
2019-03-01T13:20:36.000Z,26.9
2019-03-01T13:21:36.000Z,26.9
2019-03-01T13:23:36.000Z,26.9
2019-03-01T13:24:36.000Z,26.9
2019-03-01T13:26:36.000Z,27
2019-03-01T13:28:36.000Z,27
2019-03-01T13:30:36.000Z,27
2019-03-01T13:31:36.000Z,27.1
2019-03-01T13:33:36.000Z,27.2
2019-03-01T13:34:36.000Z,27.2
2019-03-01T13:36:36.000Z,27.2
2019-03-01T13:38:36.000Z,27.1
2019-03-01T13:40:21.000Z,27.2
2019-03-01T13:41:36.000Z,27.1
2019-03-01T13:43:21.000Z,27.1
2019-03-01T13:44:36.000Z,27
2019-03-01T13:46:22.000Z,26.9
2019-03-01T13:47:37.000Z,26.9
2019-03-01T13:49:37.000Z,26.9
2019-03-01T13:51:37.000Z,27
2019-03-01T13:53:37.000Z,27
2019-03-01T13:55:22.000Z,27.1
2019-03-01T13:56:37.000Z,27
2019-03-01T13:57:37.000Z,27.1
2019-03-01T13:59:37.000Z,27.2
2019-03-01T14:00:37.000Z,27.2
2019-03-01T14:02:37.000Z,27.2
2019-03-01T14:04:37.000Z,27.2
2019-03-01T14:06:37.000Z,27
2019-03-01T14:07:37.000Z,27
2019-03-01T14:09:22.000Z,27.1
2019-03-01T14:10:37.000Z,27
2019-03-01T14:12:37.000Z,26.9
2019-03-01T14:14:22.000Z,26.8
2019-03-01T14:15:37.000Z,26.8
2019-03-01T14:17:22.000Z,26.7
2019-03-01T14:18:37.000Z,26.6
2019-03-01T14:19:37.000Z,26.6
2019-03-01T14:20:37.000Z,26.6
2019-03-01T14:22:37.000Z,26.7
2019-03-01T14:24:37.000Z,26.8
2019-03-01T14:25:37.000Z,26.9
2019-03-01T14:27:22.000Z,27
2019-03-01T14:28:37.000Z,27
2019-03-01T14:30:22.000Z,27
2019-03-01T14:31:37.000Z,27
2019-03-01T14:33:22.000Z,26.9
2019-03-01T14:34:37.000Z,26.9
2019-03-01T14:36:37.000Z,26.9
2019-03-01T14:37:37.000Z,26.9
2019-03-01T14:39:37.000Z,26.9
2019-03-01T14:41:37.000Z,27
2019-03-01T14:42:37.000Z,27
2019-03-01T14:44:37.000Z,27.1
2019-03-01T14:45:37.000Z,27.2
2019-03-01T14:46:37.000Z,27.3
2019-03-01T14:48:37.000Z,27.4
2019-03-01T14:50:37.000Z,27.4
2019-03-01T14:52:36.000Z,27.3
2019-03-01T14:54:36.000Z,27.2
2019-03-01T14:56:36.000Z,27.2
2019-03-01T14:57:36.000Z,27.2
2019-03-01T14:59:36.000Z,27.2
2019-03-01T15:00:36.000Z,27.2
2019-03-01T15:02:36.000Z,27.2
2019-03-01T15:03:36.000Z,27.1
2019-03-01T15:05:36.000Z,27
2019-03-01T15:07:36.000Z,27
2019-03-01T15:09:36.000Z,26.9
2019-03-01T15:11:36.000Z,26.9
2019-03-01T15:13:36.000Z,26.9
2019-03-01T15:15:21.000Z,27
2019-03-01T15:16:36.000Z,26.9
2019-03-01T15:18:36.000Z,26.8
2019-03-01T15:19:36.000Z,26.8
2019-03-01T15:21:36.000Z,26.9
2019-03-01T15:23:21.000Z,26.9
2019-03-01T15:24:36.000Z,26.8
2019-03-01T15:25:36.000Z,26.8
2019-03-01T15:27:36.000Z,26.9
2019-03-01T15:29:36.000Z,26.8
2019-03-01T15:31:36.000Z,26.8
2019-03-01T15:33:36.000Z,26.8
2019-03-01T15:35:36.000Z,26.8
2019-03-01T15:36:36.000Z,26.8
2019-03-01T15:38:21.000Z,26.8
2019-03-01T15:39:36.000Z,26.7
2019-03-01T15:41:36.000Z,26.7
2019-03-01T15:43:36.000Z,26.6
2019-03-01T15:45:36.000Z,26.7
2019-03-01T15:47:21.000Z,26.7
2019-03-01T15:48:36.000Z,26.7
2019-03-01T15:50:21.000Z,26.5
2019-03-01T15:51:36.000Z,26.4
2019-03-01T15:53:21.000Z,26.4
2019-03-01T15:54:36.000Z,26.3
2019-03-01T15:55:36.000Z,26.4
2019-03-01T15:57:36.000Z,26.6
2019-03-01T15:59:36.000Z,26.6
2019-03-01T16:01:36.000Z,26.7
2019-03-01T16:02:36.000Z,26.7
2019-03-01T16:04:36.000Z,26.8
2019-03-01T16:06:36.000Z,26.9
2019-03-01T16:08:21.000Z,27
2019-03-01T16:09:21.000Z,27
2019-03-01T16:10:36.000Z,26.9
2019-03-01T16:11:36.000Z,26.9
2019-03-01T16:13:21.000Z,26.9
2019-03-01T16:14:21.000Z,26.9
2019-03-01T16:15:36.000Z,26.9
2019-03-01T16:16:36.000Z,26.8
2019-03-01T16:18:36.000Z,26.8
2019-03-01T16:20:27.000Z,26.6
2019-03-01T16:21:36.000Z,26.5
2019-03-01T16:23:36.000Z,26.5
2019-03-01T16:24:36.000Z,26.5
2019-03-01T16:26:21.000Z,26.6
2019-03-01T16:27:36.000Z,26.6
2019-03-01T16:29:36.000Z,26.6
2019-03-01T16:30:36.000Z,26.6
2019-03-01T16:32:36.000Z,26.6
2019-03-01T16:34:36.000Z,26.5
2019-03-01T16:35:36.000Z,26.5
2019-03-01T16:37:24.000Z,26.5
2019-03-01T16:38:36.000Z,26.4
2019-03-01T16:40:36.000Z,26.4
2019-03-01T16:41:36.000Z,26.4
2019-03-01T16:43:27.000Z,26.5
2019-03-01T16:44:36.000Z,26.4
2019-03-01T16:45:36.000Z,26.5
2019-03-01T16:47:22.000Z,26.5
2019-03-01T16:49:22.000Z,26.5
2019-03-01T16:50:36.000Z,26.4
2019-03-01T16:51:36.000Z,26.3
2019-03-01T16:53:36.000Z,26.3
2019-03-01T16:55:21.000Z,26.3
2019-03-01T16:56:36.000Z,26.3
2019-03-01T16:58:21.000Z,26.2
2019-03-01T17:00:36.000Z,26.1
2019-03-01T17:02:36.000Z,26.1
2019-03-01T17:03:36.000Z,26.1
2019-03-01T17:05:36.000Z,26.1
2019-03-01T17:06:36.000Z,26.1
2019-03-01T17:08:36.000Z,26.2
2019-03-01T17:09:36.000Z,26.2
2019-03-01T17:11:36.000Z,26.3
2019-03-01T17:13:22.000Z,26.3
2019-03-01T17:15:36.000Z,26.1
2019-03-01T17:17:36.000Z,26.1
2019-03-01T17:18:37.000Z,26.2
2019-03-01T17:20:36.000Z,26.3
2019-03-01T17:21:36.000Z,26.3
2019-03-01T17:23:36.000Z,26.4
2019-03-01T17:24:36.000Z,26.4
2019-03-01T17:26:36.000Z,26.5
2019-03-01T17:27:36.000Z,26.4
2019-03-01T17:29:36.000Z,26.4
2019-03-01T17:30:36.000Z,26.3
2019-03-01T17:32:36.000Z,26.4
2019-03-01T17:33:36.000Z,26.4
2019-03-01T17:35:36.000Z,26.5
2019-03-01T17:36:36.000Z,26.5
2019-03-01T17:38:36.000Z,26.5
2019-03-01T17:40:36.000Z,26.4
2019-03-01T17:41:37.000Z,26.4
2019-03-01T17:43:37.000Z,26.6
2019-03-01T17:45:36.000Z,26.7
2019-03-01T17:47:36.000Z,26.6
2019-03-01T17:48:36.000Z,26.6
2019-03-01T17:50:36.000Z,26.6
2019-03-01T17:51:36.000Z,26.7
2019-03-01T17:53:36.000Z,26.7
2019-03-01T17:55:21.000Z,26.6
2019-03-01T17:56:22.000Z,26.4
2019-03-01T17:57:36.000Z,26.4
2019-03-01T17:59:22.000Z,26.4
2019-03-01T18:00:25.000Z,26.4
2019-03-01T18:01:36.000Z,26.3
2019-03-01T18:02:36.000Z,26.2
2019-03-01T18:04:36.000Z,26.3
2019-03-01T18:06:37.000Z,26.3
2019-03-01T18:08:37.000Z,26.4
2019-03-01T18:09:37.000Z,26.4
2019-03-01T18:11:22.000Z,26.4
2019-03-01T18:12:37.000Z,26.4
2019-03-01T18:13:37.000Z,26.4
2019-03-01T18:14:37.000Z,26.5
2019-03-01T18:16:25.000Z,26.6
2019-03-01T18:17:37.000Z,26.5
2019-03-01T18:18:37.000Z,26.5
2019-03-01T18:20:37.000Z,26.5
2019-03-01T18:22:23.000Z,26.4
2019-03-01T18:23:37.000Z,26.3
2019-03-01T18:25:22.000Z,26.2
2019-03-01T18:26:23.000Z,26.1
2019-03-01T18:27:37.000Z,26.1
2019-03-01T18:29:37.000Z,26.1
2019-03-01T18:30:37.000Z,26.1
2019-03-01T18:32:37.000Z,26.2
2019-03-01T18:34:22.000Z,26.3
2019-03-01T18:35:37.000Z,26.4
2019-03-01T18:37:22.000Z,26.4
2019-03-01T18:38:37.000Z,26.4
2019-03-01T18:39:37.000Z,26.5
2019-03-01T18:41:22.000Z,26.6
2019-03-01T18:42:37.000Z,26.5
2019-03-01T18:43:37.000Z,26.5
2019-03-01T18:45:37.000Z,26.5
2019-03-01T18:47:37.000Z,26.4
2019-03-01T18:49:22.000Z,26.5
2019-03-01T18:50:37.000Z,26.5
2019-03-01T18:51:37.000Z,26.6
2019-03-01T18:53:22.000Z,26.7
2019-03-01T18:55:37.000Z,26.6
2019-03-01T18:57:37.000Z,26.5
2019-03-01T18:58:37.000Z,26.4
2019-03-01T19:00:37.000Z,26.4
2019-03-01T19:02:22.000Z,26.5
2019-03-01T19:04:29.000Z,26.3
2019-03-01T19:05:37.000Z,26.3
2019-03-01T19:07:22.000Z,26.3
2019-03-01T19:08:37.000Z,26.3
2019-03-01T19:10:22.000Z,26.2
2019-03-01T19:11:37.000Z,26.1
2019-03-01T19:12:37.000Z,26.1
2019-03-01T19:14:37.000Z,26.2
2019-03-01T19:15:37.000Z,26.2
2019-03-01T19:17:37.000Z,26.2
2019-03-01T19:18:37.000Z,26.2
2019-03-01T19:20:37.000Z,26.2
2019-03-01T19:21:37.000Z,26.2
2019-03-01T19:23:37.000Z,26.2
2019-03-01T19:24:37.000Z,26.3
2019-03-01T19:26:37.000Z,26.3
2019-03-01T19:27:37.000Z,26.4
2019-03-01T19:29:37.000Z,26.5
2019-03-01T19:30:37.000Z,26.5
2019-03-01T19:32:22.000Z,26.5
2019-03-01T19:33:37.000Z,26.5
2019-03-01T19:35:22.000Z,26.4
2019-03-01T19:36:37.000Z,26.3
2019-03-01T19:38:22.000Z,26.2
2019-03-01T19:39:37.000Z,26.2
2019-03-01T19:40:37.000Z,26.2
2019-03-01T19:42:22.000Z,26.4
2019-03-01T19:43:37.000Z,26.4
2019-03-01T19:45:22.000Z,26.5
2019-03-01T19:46:37.000Z,26.5
2019-03-01T19:48:22.000Z,26.5
2019-03-01T19:49:37.000Z,26.5
2019-03-01T19:51:22.000Z,26.5
2019-03-01T19:52:37.000Z,26.5
2019-03-01T19:54:37.000Z,26.5
2019-03-01T19:55:37.000Z,26.5
2019-03-01T19:57:22.000Z,26.7
2019-03-01T19:58:37.000Z,26.7
2019-03-01T20:00:37.000Z,26.8
2019-03-01T20:02:22.000Z,26.7
2019-03-01T20:03:37.000Z,26.7
2019-03-01T20:04:37.000Z,26.8
2019-03-01T20:06:37.000Z,26.8
2019-03-01T20:08:37.000Z,26.7
2019-03-01T20:09:37.000Z,26.8
2019-03-01T20:11:22.000Z,26.8
2019-03-01T20:12:37.000Z,26.7
2019-03-01T20:13:37.000Z,26.6
2019-03-01T20:15:37.000Z,26.6
2019-03-01T20:17:37.000Z,26.6
2019-03-01T20:18:37.000Z,26.6
2019-03-01T20:19:37.000Z,26.6
2019-03-01T20:21:37.000Z,26.7
2019-03-01T20:23:37.000Z,26.7
2019-03-01T20:24:37.000Z,26.8
2019-03-01T20:26:22.000Z,26.8
2019-03-01T20:27:37.000Z,26.7
2019-03-01T20:29:37.000Z,26.6
2019-03-01T20:31:37.000Z,26.5
2019-03-01T20:32:37.000Z,26.5
2019-03-01T20:34:37.000Z,26.5
2019-03-01T20:35:37.000Z,26.4
2019-03-01T20:36:37.000Z,26.5
2019-03-01T20:38:37.000Z,26.5
2019-03-01T20:39:37.000Z,26.5
2019-03-01T20:41:37.000Z,26.5
2019-03-01T20:43:37.000Z,26.4
2019-03-01T20:44:37.000Z,26.3
2019-03-01T20:46:22.000Z,26.2
2019-03-01T20:47:23.000Z,26.2
2019-03-01T20:49:37.000Z,26.2
2019-03-01T20:50:37.000Z,26.1